Heroic Leader — C6ZD2 — position and weather

sailwx.info

Track history (hours):
 
Tides and Currents Weather Stations Pressure Air Temp Water Temp Dewpoint Dewpoint Depression Visibility Wind Speed Wind Dir Waves Ship Positions

Heroic Leader

Last reported at 2017-Feb-27 20:00 UTC. Time now 2017-Mar-01 18:04 UTC.
Position N 47°30' E 168°06'.

Length 200 m; draft 8.8 m.

Type: Cargo ship. MMSI: 311052700.

Wind from 160 at 13 knots

Barometer 1008.0 mb
Air temperature 5.0 ° C
Visibility: greater than 5.4 NM
Water temperature 3.6 ° C

Date/timePositionNaut miles runAvg speedWind from/ knotsBaromVisibWave heightAir tempDewpointWater temp
2017-Feb-27 20:00N 47°30' E 168°06'   160 / 131008.0 5.4 5.0 3.6
2017-Feb-24 20:00N 46°48' W 161°18'   160 / 81035.0 1.1 8.0 6.6
2017-Feb-19 17:27N 32°36' W 118°08'1617.8
2017-Feb-19 16:33N 32°36' W 117°48'1717.5
2017-Feb-19 15:33N 32°36' W 117°28'1212.3
2017-Feb-19 14:33N 32°40' W 117°14'5 5.0
2017-Feb-19 13:33N 32°40' W 117°08'2 0.4
2017-Feb-19 09:20N 32°39' W 117°07'0 0.0
2017-Feb-19 08:26N 32°39' W 117°07'0 0.0
2017-Feb-19 06:32N 32°39' W 117°07'0 0.0
2017-Feb-19 05:14N 32°39' W 117°07'0 0.0
2017-Feb-19 04:32N 32°39' W 117°07'0 0.0
2017-Feb-19 03:32N 32°39' W 117°07'0 0.0
2017-Feb-19 02:32N 32°39' W 117°07'0 0.0
2017-Feb-19 01:32N 32°39' W 117°07'0 0.0
2017-Feb-19 00:32N 32°39' W 117°07'0 0.0
2017-Feb-18 23:32N 32°39' W 117°07'0 0.0
2017-Feb-18 22:32N 32°39' W 117°07'2 2.4
2017-Feb-18 21:32N 32°41' W 117°08'6 6.3
2017-Feb-18 20:33N 32°37' W 117°14'6 5.7
2017-Feb-18 19:33N 32°36' W 117°21'1615.6
2017-Feb-18 18:34N 32°47' W 117°33'1817.8
2017-Feb-18 17:33N 33°01' W 117°47'1817.6
2017-Feb-18 16:33N 33°14' W 118°01'1817.7
2017-Feb-18 15:34N 33°29' W 118°13'1817.0
2017-Feb-18 14:30N 33°40' W 118°30'  
Track history (hours):
 
Tides and Currents Weather Stations Pressure Air Temp Water Temp Dewpoint Dewpoint Depression Visibility Wind Speed Wind Dir Waves Ship Positions

Heroic Leader

Last reported at 2017-Feb-27 20:00 UTC. Time now 2017-Mar-01 18:04 UTC.
Position N 47°30' E 168°06'.

Length 200 m; draft 8.8 m.

Type: Cargo ship. MMSI: 311052700.

Wind from 160 at 13 knots

Barometer 1008.0 mb
Air temperature 5.0 ° C
Visibility: greater than 5.4 NM
Water temperature 3.6 ° C

Date/timePositionNaut miles runAvg speedWind from/ knotsBaromVisibWave heightAir tempDewpointWater temp
2017-Feb-27 20:00N 47°30' E 168°06'   160 / 131008.0 5.4 5.0 3.6
2017-Feb-24 20:00N 46°48' W 161°18'   160 / 81035.0 1.1 8.0 6.6
2017-Feb-19 17:27N 32°36' W 118°08'1617.8
2017-Feb-19 16:33N 32°36' W 117°48'1717.5
2017-Feb-19 15:33N 32°36' W 117°28'1212.3
2017-Feb-19 14:33N 32°40' W 117°14'5 5.0
2017-Feb-19 13:33N 32°40' W 117°08'2 0.4
2017-Feb-19 09:20N 32°39' W 117°07'0 0.0
2017-Feb-19 08:26N 32°39' W 117°07'0 0.0
2017-Feb-19 06:32N 32°39' W 117°07'0 0.0
2017-Feb-19 05:14N 32°39' W 117°07'0 0.0
2017-Feb-19 04:32N 32°39' W 117°07'0 0.0
2017-Feb-19 03:32N 32°39' W 117°07'0 0.0
2017-Feb-19 02:32N 32°39' W 117°07'0 0.0
2017-Feb-19 01:32N 32°39' W 117°07'0 0.0
2017-Feb-19 00:32N 32°39' W 117°07'0 0.0
2017-Feb-18 23:32N 32°39' W 117°07'0 0.0
2017-Feb-18 22:32N 32°39' W 117°07'2 2.4
2017-Feb-18 21:32N 32°41' W 117°08'6 6.3
2017-Feb-18 20:33N 32°37' W 117°14'6 5.7
2017-Feb-18 19:33N 32°36' W 117°21'1615.6
2017-Feb-18 18:34N 32°47' W 117°33'1817.8
2017-Feb-18 17:33N 33°01' W 117°47'1817.6
2017-Feb-18 16:33N 33°14' W 118°01'1817.7
2017-Feb-18 15:34N 33°29' W 118°13'1817.0
2017-Feb-18 14:30N 33°40' W 118°30'  

Dump ship's entire track history